Time;durP1;ratioP1;P1;durP2;ratioP2;P2;SDS_P1;SDS_P2;PMS_P1;PMS_P2;Temp;Humidity;BMP_temperature;BMP_pressure;BME280_temperature;BME280_humidity;BME280_pressure;Samples;Min_cycle;Max_cycle;Signal;HPM_P1;HPM_P2
2023/04/21 00:01:28;;;;;;;;;22.50;19.00;;;;;;;;5104368;27;62150;-72
2023/04/21 00:03:54;;;;;;;;;31.25;24.25;;;;;;;;5104756;27;61906;-73
2023/04/21 00:06:21;;;;;;;;;30.50;22.00;;;;;;;;5103779;27;62538;-73
2023/04/21 00:08:46;;;;;;;;;24.50;20.75;;;;;;;;5104259;27;62013;-73
2023/04/21 00:11:13;;;;;;;;;37.00;26.50;;;;;;;;5102946;27;62096;-72
2023/04/21 00:13:39;;;;;;;;;43.50;38.00;;;;;;;;5103511;27;61792;-72
2023/04/21 00:16:04;;;;;;;;;36.00;29.25;;;;;;;;5101132;27;62689;-72
2023/04/21 00:18:30;;;;;;;;;29.25;24.50;;;;;;;;5102719;27;61860;-72
2023/04/21 00:20:55;;;;;;;;;47.75;34.00;;;;;;;;5103883;27;61806;-73
2023/04/21 00:23:21;;;;;;;;;48.00;36.00;;;;;;;;5104380;27;61763;-73
2023/04/21 00:25:46;;;;;;;;;51.00;38.25;;;;;;;;5103349;27;62686;-73
2023/04/21 00:28:11;;;;;;;;;59.00;40.00;;;;;;;;5083906;27;61821;-72
2023/04/21 00:30:36;;;;;;;;;60.50;42.75;;;;;;;;5083684;28;61960;-72
2023/04/21 00:33:02;;;;;;;;;61.25;45.25;;;;;;;;5083947;28;61791;-72
2023/04/21 00:35:27;;;;;;;;;38.75;28.75;;;;;;;;5079820;28;63180;-72
2023/04/21 00:37:52;;;;;;;;;39.25;25.25;;;;;;;;5083432;28;61744;-72
2023/04/21 00:40:18;;;;;;;;;72.33;54.00;;;;;;;;5083238;27;61955;-73
2023/04/21 00:42:43;;;;;;;;;59.50;40.75;;;;;;;;5081522;28;61823;-72
2023/04/21 00:45:09;;;;;;;;;47.50;34.00;;;;;;;;5081531;28;61896;-72
2023/04/21 00:47:34;;;;;;;;;64.00;50.00;;;;;;;;5083407;28;61788;-73
2023/04/21 00:49:59;;;;;;;;;36.00;31.50;;;;;;;;5100589;27;61664;-73
2023/04/21 00:52:25;;;;;;;;;28.75;24.50;;;;;;;;5103664;27;61699;-72
2023/04/21 00:54:51;;;;;;;;;28.25;25.25;;;;;;;;5102892;27;62730;-72
2023/04/21 00:57:17;;;;;;;;;36.75;30.75;;;;;;;;5102857;27;62028;-72
2023/04/21 00:59:42;;;;;;;;;35.00;28.00;;;;;;;;5103578;27;61789;-72
2023/04/21 01:02:08;;;;;;;;;40.50;37.75;;;;;;;;5103475;27;61785;-72
2023/04/21 01:04:37;;;;;;;;;37.00;31.50;;;;;;;;5102723;27;61825;-72
2023/04/21 01:07:03;;;;;;;;;40.25;34.25;;;;;;;;5102198;27;62023;-72
2023/04/21 01:09:29;;;;;;;;;43.25;37.50;;;;;;;;5103145;27;61676;-72
2023/04/21 01:12:02;;;;;;;;;23.75;20.50;;;;;;;;5103232;27;61870;-72
2023/04/21 01:14:27;;;;;;;;;28.00;20.25;;;;;;;;5101872;27;62524;-73
2023/04/21 01:16:52;;;;;;;;;40.25;24.25;;;;;;;;5100963;27;61801;-72
2023/04/21 01:19:19;;;;;;;;;34.50;25.50;;;;;;;;5102983;27;61693;-73
2023/04/21 01:21:44;;;;;;;;;22.00;20.25;;;;;;;;5103267;27;61829;-72
2023/04/21 01:24:10;;;;;;;;;19.50;19.00;;;;;;;;5102385;27;62740;-72
2023/04/21 01:26:36;;;;;;;;;27.25;21.00;;;;;;;;5103193;27;61967;-72
2023/04/21 01:29:01;;;;;;;;;23.75;21.75;;;;;;;;5111461;27;61881;-72
2023/04/21 01:31:26;;;;;;;;;27.00;18.75;;;;;;;;5103169;27;61688;-72
2023/04/21 01:33:51;;;;;;;;;21.25;17.50;;;;;;;;5120923;27;61836;-72
2023/04/21 01:36:17;;;;;;;;;21.50;18.00;;;;;;;;5123164;27;62107;-72
2023/04/21 01:38:42;;;;;;;;;24.00;16.75;;;;;;;;5123644;27;61849;-72
2023/04/21 01:41:08;;;;;;;;;15.75;15.50;;;;;;;;5123107;27;62056;-73
2023/04/21 01:43:33;;;;;;;;;18.75;18.75;;;;;;;;5122584;27;62885;-72
2023/04/21 01:45:58;;;;;;;;;23.25;19.25;;;;;;;;5120975;27;61995;-72
2023/04/21 01:48:24;;;;;;;;;29.25;22.25;;;;;;;;5124498;27;62239;-72
2023/04/21 01:50:49;;;;;;;;;21.25;17.75;;;;;;;;5124535;27;61798;-72
2023/04/21 01:53:14;;;;;;;;;19.25;16.00;;;;;;;;5123645;27;61785;-72
2023/04/21 01:55:39;;;;;;;;;23.25;18.75;;;;;;;;5123262;27;61849;-72
2023/04/21 01:58:05;;;;;;;;;22.00;20.75;;;;;;;;5124037;27;61828;-72
2023/04/21 02:00:30;;;;;;;;;27.00;21.25;;;;;;;;5124235;27;61816;-72
2023/04/21 02:02:55;;;;;;;;;25.00;20.50;;;;;;;;5123432;27;62804;-72
2023/04/21 02:05:20;;;;;;;;;21.25;17.00;;;;;;;;5124129;27;61861;-72
2023/04/21 02:07:46;;;;;;;;;18.75;13.00;;;;;;;;5124103;27;61823;-72
2023/04/21 02:10:11;;;;;;;;;22.75;16.25;;;;;;;;5104513;27;61971;-72
2023/04/21 02:12:37;;;;;;;;;20.25;19.00;;;;;;;;5102729;27;61808;-72
2023/04/21 02:15:02;;;;;;;;;21.50;18.50;;;;;;;;5102131;27;62063;-72
2023/04/21 02:17:28;;;;;;;;;19.25;12.75;;;;;;;;5103620;27;62045;-72
2023/04/21 02:19:53;;;;;;;;;21.25;17.75;;;;;;;;5103145;27;61757;-72
2023/04/21 02:22:18;;;;;;;;;26.75;20.75;;;;;;;;5100748;27;64784;-73
2023/04/21 02:24:43;;;;;;;;;20.75;18.00;;;;;;;;5101407;27;61832;-72
2023/04/21 02:27:09;;;;;;;;;21.50;17.00;;;;;;;;5101627;27;61850;-72
2023/04/21 02:29:35;;;;;;;;;24.00;19.50;;;;;;;;5102637;27;62680;-73
2023/04/21 02:32:00;;;;;;;;;23.00;19.25;;;;;;;;5102278;27;61776;-73
2023/04/21 02:34:26;;;;;;;;;25.50;19.75;;;;;;;;5102878;27;61941;-73
2023/04/21 02:36:51;;;;;;;;;25.25;18.00;;;;;;;;5101977;27;61893;-73
2023/04/21 02:39:16;;;;;;;;;19.50;15.00;;;;;;;;5101774;27;61841;-73
2023/04/21 02:41:41;;;;;;;;;19.00;15.50;;;;;;;;5102057;27;62609;-73
2023/04/21 02:44:07;;;;;;;;;17.25;14.00;;;;;;;;5102752;27;61907;-73
2023/04/21 02:46:32;;;;;;;;;22.50;18.75;;;;;;;;5100233;27;61787;-73
2023/04/21 02:48:57;;;;;;;;;21.50;18.00;;;;;;;;5102621;27;61802;-72
2023/04/21 02:51:22;;;;;;;;;27.50;20.25;;;;;;;;5101759;27;61954;-73
2023/04/21 02:53:47;;;;;;;;;18.75;13.75;;;;;;;;5102675;27;62011;-73
2023/04/21 02:56:13;;;;;;;;;20.00;17.50;;;;;;;;5102783;27;61833;-73
2023/04/21 02:58:38;;;;;;;;;23.00;16.50;;;;;;;;5100097;27;61806;-73
2023/04/21 03:01:03;;;;;;;;;16.00;13.00;;;;;;;;5100301;27;64772;-73
2023/04/21 03:03:29;;;;;;;;;16.25;15.00;;;;;;;;5102635;27;61724;-73
2023/04/21 03:05:55;;;;;;;;;18.00;14.25;;;;;;;;5101870;27;61705;-73
2023/04/21 03:08:20;;;;;;;;;17.50;15.00;;;;;;;;5101404;27;61778;-73
2023/04/21 03:10:46;;;;;;;;;18.50;15.50;;;;;;;;5100265;27;63851;-73
2023/04/21 03:13:11;;;;;;;;;21.50;14.50;;;;;;;;5101873;27;61847;-73
2023/04/21 03:15:36;;;;;;;;;21.75;16.00;;;;;;;;5101777;27;61873;-73
2023/04/21 03:18:01;;;;;;;;;21.50;19.00;;;;;;;;5100882;27;62209;-73
2023/04/21 03:20:27;;;;;;;;;22.00;16.75;;;;;;;;5101348;27;61851;-73
2023/04/21 03:22:52;;;;;;;;;20.75;17.00;;;;;;;;5101784;27;61752;-73
2023/04/21 03:25:18;;;;;;;;;22.00;16.00;;;;;;;;5100819;27;61795;-73
2023/04/21 03:27:43;;;;;;;;;21.25;15.75;;;;;;;;5102450;27;61896;-73
2023/04/21 03:30:08;;;;;;;;;16.00;16.00;;;;;;;;5099653;27;63333;-73
2023/04/21 03:32:34;;;;;;;;;29.25;15.75;;;;;;;;5102275;27;61702;-72
2023/04/21 03:34:59;;;;;;;;;33.25;19.00;;;;;;;;5100043;27;61664;-73
2023/04/21 03:37:24;;;;;;;;;19.25;13.75;;;;;;;;5101874;27;61676;-72
2023/04/21 03:39:49;;;;;;;;;19.50;17.25;;;;;;;;5101585;27;61859;-73
2023/04/21 03:42:15;;;;;;;;;22.75;13.50;;;;;;;;5102108;27;61675;-73
2023/04/21 03:44:40;;;;;;;;;24.50;18.50;;;;;;;;5100918;27;61710;-73
2023/04/21 03:47:05;;;;;;;;;19.25;14.75;;;;;;;;5102046;27;62023;-73
2023/04/21 03:49:32;;;;;;;;;22.75;17.25;;;;;;;;5100895;27;62068;-73
2023/04/21 03:51:58;;;;;;;;;24.75;17.25;;;;;;;;5101664;27;61984;-73
2023/04/21 03:54:23;;;;;;;;;22.25;18.00;;;;;;;;5102026;27;62035;-73
2023/04/21 03:56:48;;;;;;;;;28.25;25.00;;;;;;;;5101649;27;61770;-73
2023/04/21 03:59:14;;;;;;;;;53.75;36.25;;;;;;;;5100984;27;61810;-73
2023/04/21 04:01:41;;;;;;;;;47.00;36.75;;;;;;;;5101824;27;61870;-73
2023/04/21 04:04:06;;;;;;;;;55.00;37.25;;;;;;;;5099647;27;61976;-73
2023/04/21 04:06:31;;;;;;;;;40.75;36.50;;;;;;;;5101727;27;61897;-72
2023/04/21 04:08:57;;;;;;;;;41.00;30.75;;;;;;;;5101359;27;61823;-73
2023/04/21 04:11:22;;;;;;;;;33.25;27.50;;;;;;;;5104918;27;61731;-73
2023/04/21 04:13:47;;;;;;;;;36.00;29.50;;;;;;;;5104754;27;61831;-73
2023/04/21 04:16:13;;;;;;;;;29.25;20.50;;;;;;;;5104287;27;61907;-73
2023/04/21 04:18:38;;;;;;;;;22.00;20.25;;;;;;;;5102695;27;63774;-73
2023/04/21 04:21:07;;;;;;;;;22.75;15.75;;;;;;;;5103534;27;61924;-73
2023/04/21 04:23:32;;;;;;;;;21.00;19.25;;;;;;;;5103627;27;62227;-73
2023/04/21 04:25:58;;;;;;;;;25.50;19.50;;;;;;;;5104759;27;61980;-73
2023/04/21 04:28:23;;;;;;;;;24.75;18.00;;;;;;;;5102317;27;63731;-73
2023/04/21 04:30:49;;;;;;;;;24.50;18.50;;;;;;;;5105095;27;62122;-73
2023/04/21 04:33:14;;;;;;;;;25.00;18.50;;;;;;;;5104213;27;61855;-73
2023/04/21 04:35:40;;;;;;;;;25.50;21.00;;;;;;;;5103235;27;61856;-73
2023/04/21 04:38:06;;;;;;;;;27.25;22.00;;;;;;;;5104108;27;61832;-73
2023/04/21 04:40:32;;;;;;;;;29.75;20.75;;;;;;;;5104585;27;61722;-73
2023/04/21 04:42:57;;;;;;;;;20.50;18.75;;;;;;;;5102969;27;61906;-73
2023/04/21 04:45:22;;;;;;;;;22.75;18.25;;;;;;;;5103872;27;62008;-73
2023/04/21 04:47:48;;;;;;;;;20.25;18.25;;;;;;;;5103868;27;61920;-72
2023/04/21 04:50:13;;;;;;;;;22.50;18.00;;;;;;;;5104422;27;61731;-72
2023/04/21 04:52:39;;;;;;;;;22.00;19.00;;;;;;;;5104879;27;61718;-72
2023/04/21 04:55:05;;;;;;;;;18.75;16.50;;;;;;;;5104876;27;61831;-72
2023/04/21 04:57:30;;;;;;;;;20.75;16.00;;;;;;;;5102333;27;63510;-72
2023/04/21 04:59:55;;;;;;;;;18.75;17.50;;;;;;;;5104155;27;61929;-72
2023/04/21 05:02:24;;;;;;;;;22.00;18.75;;;;;;;;5120382;27;61812;-72
2023/04/21 05:04:49;;;;;;;;;22.50;18.25;;;;;;;;5122020;27;61757;-72
2023/04/21 05:07:15;;;;;;;;;22.00;21.25;;;;;;;;5104212;27;61793;-72
2023/04/21 05:09:40;;;;;;;;;21.50;17.50;;;;;;;;5104213;27;62011;-72
2023/04/21 05:12:05;;;;;;;;;20.75;17.75;;;;;;;;5104720;27;61864;-73
2023/04/21 05:14:30;;;;;;;;;23.00;21.00;;;;;;;;5112722;27;61836;-74
2023/04/21 05:16:56;;;;;;;;;30.75;25.75;;;;;;;;5104028;27;62218;-72
2023/04/21 05:19:21;;;;;;;;;20.25;18.50;;;;;;;;5104312;27;61906;-74
2023/04/21 05:21:46;;;;;;;;;24.00;16.25;;;;;;;;5103258;27;61815;-74
2023/04/21 05:24:12;;;;;;;;;21.00;19.50;;;;;;;;5104878;27;61845;-74
2023/04/21 05:26:37;;;;;;;;;23.00;18.00;;;;;;;;5097270;27;61783;-73
2023/04/21 05:29:02;;;;;;;;;24.25;21.25;;;;;;;;5083438;28;61831;-74
2023/04/21 05:31:28;;;;;;;;;25.75;21.75;;;;;;;;5083216;28;62050;-76
2023/04/21 05:33:53;;;;;;;;;31.25;21.75;;;;;;;;5082411;28;62038;-77
2023/04/21 05:36:20;;;;;;;;;23.00;20.50;;;;;;;;5091402;27;63457;-77
2023/04/21 05:38:46;;;;;;;;;24.00;21.25;;;;;;;;5103766;27;61826;-71
2023/04/21 05:41:11;;;;;;;;;30.00;20.00;;;;;;;;5103038;27;62311;-71
2023/04/21 05:43:37;;;;;;;;;26.25;24.00;;;;;;;;5111837;27;62052;-71
2023/04/21 05:46:03;;;;;;;;;27.50;21.25;;;;;;;;5101284;27;61698;-72
2023/04/21 05:48:28;;;;;;;;;22.50;19.25;;;;;;;;5109278;27;61826;-72
2023/04/21 05:50:54;;;;;;;;;26.25;21.00;;;;;;;;5110195;27;61788;-72
2023/04/21 05:53:20;;;;;;;;;24.25;19.00;;;;;;;;5095231;27;61889;-72
2023/04/21 05:55:45;;;;;;;;;33.00;20.75;;;;;;;;5121717;27;64031;-72
2023/04/21 05:58:10;;;;;;;;;26.75;21.50;;;;;;;;5103531;27;61941;-73
2023/04/21 06:00:35;;;;;;;;;25.25;20.50;;;;;;;;5101621;27;62167;-73
2023/04/21 06:03:01;;;;;;;;;35.00;21.00;;;;;;;;5106664;27;61990;-72
2023/04/21 06:05:26;;;;;;;;;17.75;15.00;;;;;;;;5101064;27;64271;-72
2023/04/21 06:07:51;;;;;;;;;30.00;26.00;;;;;;;;5103020;27;61962;-72
2023/04/21 06:10:18;;;;;;;;;23.25;20.50;;;;;;;;5105240;27;61897;-72
2023/04/21 06:12:43;;;;;;;;;25.50;21.75;;;;;;;;5102266;27;61880;-72
2023/04/21 06:15:09;;;;;;;;;26.00;20.25;;;;;;;;5101187;27;61955;-72
2023/04/21 06:17:34;;;;;;;;;45.75;31.00;;;;;;;;5103808;27;61660;-71
2023/04/21 06:19:59;;;;;;;;;28.00;23.00;;;;;;;;5102361;27;62205;-72
2023/04/21 06:22:26;;;;;;;;;25.75;21.50;;;;;;;;5102519;27;61762;-72
2023/04/21 06:24:51;;;;;;;;;27.75;22.75;;;;;;;;5099279;27;61845;-72
2023/04/21 06:27:16;;;;;;;;;27.00;24.00;;;;;;;;5096212;27;61885;-71
2023/04/21 06:29:42;;;;;;;;;31.00;25.75;;;;;;;;5100790;27;62042;-71
2023/04/21 06:32:07;;;;;;;;;38.00;27.75;;;;;;;;5101766;27;61803;-71
2023/04/21 06:34:33;;;;;;;;;29.50;23.00;;;;;;;;5087179;27;63330;-72
2023/04/21 06:36:58;;;;;;;;;23.75;22.75;;;;;;;;5102553;27;61929;-72
2023/04/21 06:39:23;;;;;;;;;25.25;22.75;;;;;;;;5101354;27;61840;-71
2023/04/21 06:41:49;;;;;;;;;45.00;30.50;;;;;;;;5102516;27;62096;-73
2023/04/21 06:44:14;;;;;;;;;29.25;27.00;;;;;;;;5100197;27;62780;-72
2023/04/21 06:46:40;;;;;;;;;31.00;21.25;;;;;;;;5101226;27;62068;-73
2023/04/21 06:49:06;;;;;;;;;31.25;26.00;;;;;;;;5102593;27;62001;-72
2023/04/21 06:51:31;;;;;;;;;28.00;23.00;;;;;;;;5100793;27;62133;-72
2023/04/21 06:53:56;;;;;;;;;32.50;25.50;;;;;;;;5099992;27;63054;-72
2023/04/21 06:56:22;;;;;;;;;38.75;32.75;;;;;;;;5101765;27;61881;-75
2023/04/21 06:58:47;;;;;;;;;44.00;37.75;;;;;;;;5099215;27;61821;-72
2023/04/21 07:01:12;;;;;;;;;43.00;37.00;;;;;;;;5100742;27;62333;-72
2023/04/21 07:03:37;;;;;;;;;40.50;35.00;;;;;;;;5107877;27;63766;-73
2023/04/21 07:06:03;;;;;;;;;47.00;37.25;;;;;;;;5112059;27;62033;-73
2023/04/21 07:08:28;;;;;;;;;33.50;24.25;;;;;;;;5117080;27;61898;-73
2023/04/21 07:10:53;;;;;;;;;34.75;29.00;;;;;;;;5105920;27;62388;-73
2023/04/21 07:13:18;;;;;;;;;37.00;31.25;;;;;;;;5100160;27;61911;-73
2023/04/21 07:15:44;;;;;;;;;34.00;29.33;;;;;;;;5101018;27;61930;-73
2023/04/21 07:18:09;;;;;;;;;28.00;18.75;;;;;;;;5111311;27;62007;-76
2023/04/21 07:20:34;;;;;;;;;23.75;22.75;;;;;;;;5123026;27;61938;-74
2023/04/21 07:22:59;;;;;;;;;23.50;22.00;;;;;;;;5105126;27;61777;-73
2023/04/21 07:25:25;;;;;;;;;26.75;19.75;;;;;;;;5101426;27;61700;-73
2023/04/21 07:27:50;;;;;;;;;32.50;25.00;;;;;;;;5101878;27;62033;-73
2023/04/21 07:30:15;;;;;;;;;37.75;25.25;;;;;;;;5102277;27;62089;-73
2023/04/21 07:32:41;;;;;;;;;31.75;24.00;;;;;;;;5106525;27;62816;-75
2023/04/21 07:35:06;;;;;;;;;35.25;26.25;;;;;;;;5105432;27;62061;-73
2023/04/21 07:37:31;;;;;;;;;27.00;24.50;;;;;;;;5089540;27;61820;-73
2023/04/21 07:39:57;;;;;;;;;21.75;18.50;;;;;;;;5096544;27;61974;-74
2023/04/21 07:42:22;;;;;;;;;29.00;24.75;;;;;;;;5104846;27;64536;-74
2023/04/21 07:44:48;;;;;;;;;24.50;18.75;;;;;;;;5092681;27;62167;-74
2023/04/21 07:47:13;;;;;;;;;24.50;23.00;;;;;;;;5105223;27;62325;-74
2023/04/21 07:49:38;;;;;;;;;35.25;24.00;;;;;;;;5126415;27;62258;-74
2023/04/21 07:52:03;;;;;;;;;28.50;22.50;;;;;;;;5116294;27;61794;-74
2023/04/21 07:54:29;;;;;;;;;33.25;23.75;;;;;;;;5105513;27;61770;-74
2023/04/21 07:56:54;;;;;;;;;24.50;21.25;;;;;;;;5103329;27;61801;-74
2023/04/21 07:59:20;;;;;;;;;29.00;22.25;;;;;;;;5105160;27;62624;-74
2023/04/21 08:01:45;;;;;;;;;35.75;23.00;;;;;;;;5103228;27;61849;-74
2023/04/21 08:04:10;;;;;;;;;24.50;19.25;;;;;;;;5104775;27;61795;-74
2023/04/21 08:06:36;;;;;;;;;27.00;20.75;;;;;;;;5105459;27;61972;-74
2023/04/21 08:09:01;;;;;;;;;21.75;18.25;;;;;;;;5096958;27;62070;-74
2023/04/21 08:11:27;;;;;;;;;26.00;21.00;;;;;;;;5082127;28;63900;-74
2023/04/21 08:13:52;;;;;;;;;26.50;20.50;;;;;;;;5083082;28;62260;-74
2023/04/21 08:16:18;;;;;;;;;25.00;23.25;;;;;;;;5083769;27;62436;-73
2023/04/21 08:18:43;;;;;;;;;27.25;21.00;;;;;;;;5093316;27;61709;-74
2023/04/21 08:21:08;;;;;;;;;24.25;20.00;;;;;;;;5102094;27;62053;-74
2023/04/21 08:23:33;;;;;;;;;23.75;17.75;;;;;;;;5105150;27;61792;-74
2023/04/21 08:26:00;;;;;;;;;21.25;18.00;;;;;;;;5104295;27;61717;-74
2023/04/21 08:28:25;;;;;;;;;20.25;17.25;;;;;;;;5103239;27;62186;-74
2023/04/21 08:30:50;;;;;;;;;29.75;23.25;;;;;;;;5102702;27;63126;-74
2023/04/21 08:33:15;;;;;;;;;22.50;18.00;;;;;;;;5114110;27;62002;-74
2023/04/21 08:35:41;;;;;;;;;24.25;18.25;;;;;;;;5095537;27;61711;-74
2023/04/21 08:38:07;;;;;;;;;27.00;19.75;;;;;;;;5084651;28;61766;-74
2023/04/21 08:40:33;;;;;;;;;23.50;18.50;;;;;;;;5081547;28;63502;-74
2023/04/21 08:42:58;;;;;;;;;18.00;12.25;;;;;;;;5084300;28;62006;-73
2023/04/21 08:45:24;;;;;;;;;19.75;18.25;;;;;;;;5097923;27;62078;-72
2023/04/21 08:47:50;;;;;;;;;22.50;18.00;;;;;;;;5110041;27;61837;-73
2023/04/21 08:50:18;;;;;;;;;22.50;18.25;;;;;;;;5102671;27;63391;-73
2023/04/21 08:52:43;;;;;;;;;24.25;19.00;;;;;;;;5104255;27;61956;-74
2023/04/21 08:55:10;;;;;;;;;22.00;17.00;;;;;;;;5103884;27;61926;-74
2023/04/21 08:57:35;;;;;;;;;26.50;21.50;;;;;;;;5101992;27;62671;-74
2023/04/21 09:00:02;;;;;;;;;28.00;20.50;;;;;;;;5103463;27;61845;-74
2023/04/21 09:02:31;;;;;;;;;21.75;17.50;;;;;;;;5104125;27;62367;-74
2023/04/21 09:04:58;;;;;;;;;21.50;19.75;;;;;;;;5104294;27;61908;-74
2023/04/21 09:07:37;;;;;;;;;23.00;21.00;;;;;;;;5104271;27;62365;-73
2023/04/21 09:10:04;;;;;;;;;26.25;23.75;;;;;;;;5101829;27;63531;-74
2023/04/21 09:12:29;;;;;;;;;27.25;16.50;;;;;;;;5104273;27;61937;-74
2023/04/21 09:14:56;;;;;;;;;20.75;18.25;;;;;;;;5102243;27;62081;-74
2023/04/21 09:17:27;;;;;;;;;19.00;18.00;;;;;;;;5104213;27;61748;-74
2023/04/21 09:19:52;;;;;;;;;18.25;17.00;;;;;;;;5103348;27;63047;-73
2023/04/21 09:22:18;;;;;;;;;17.25;17.25;;;;;;;;5103031;27;61985;-74
2023/04/21 09:24:44;;;;;;;;;20.25;14.75;;;;;;;;5102036;27;62123;-74
2023/04/21 09:27:09;;;;;;;;;15.75;15.50;;;;;;;;5102494;27;62092;-74
2023/04/21 09:29:35;;;;;;;;;18.00;14.50;;;;;;;;5101404;27;62795;-74
2023/04/21 09:32:01;;;;;;;;;14.00;14.00;;;;;;;;5103994;27;62057;-74
2023/04/21 09:34:29;;;;;;;;;15.25;13.00;;;;;;;;5100717;27;62202;-74
2023/04/21 09:36:59;;;;;;;;;19.00;16.00;;;;;;;;5083467;28;61791;-73
2023/04/21 09:39:24;;;;;;;;;16.75;14.25;;;;;;;;5082401;28;62547;-74
2023/04/21 09:41:50;;;;;;;;;15.00;13.75;;;;;;;;5083024;28;61848;-74
2023/04/21 09:44:16;;;;;;;;;16.25;14.00;;;;;;;;5081710;28;62077;-74
2023/04/21 09:46:44;;;;;;;;;20.00;15.75;;;;;;;;5082182;28;62020;-74
2023/04/21 09:49:11;;;;;;;;;20.00;15.50;;;;;;;;5082573;28;62407;-74
2023/04/21 09:51:37;;;;;;;;;23.75;16.00;;;;;;;;5093928;27;61695;-74
2023/04/21 09:54:14;;;;;;;;;15.50;13.50;;;;;;;;5122603;27;61828;-74
2023/04/21 09:56:39;;;;;;;;;17.75;14.50;;;;;;;;5122045;27;61908;-74
2023/04/21 09:59:06;;;;;;;;;20.50;15.75;;;;;;;;5122040;27;64643;-74
2023/04/21 10:01:34;;;;;;;;;20.25;13.25;;;;;;;;5123987;27;61779;-74
2023/04/21 10:03:59;;;;;;;;;19.25;17.25;;;;;;;;5081591;28;61778;-74
2023/04/21 10:06:25;;;;;;;;;18.25;16.75;;;;;;;;5115723;27;61716;-74
2023/04/21 10:08:51;;;;;;;;;21.00;17.00;;;;;;;;5122930;27;61921;-74
2023/04/21 10:11:17;;;;;;;;;16.00;11.75;;;;;;;;5124082;27;61771;-73
2023/04/21 10:13:42;;;;;;;;;21.00;17.25;;;;;;;;5123461;27;61702;-74
2023/04/21 10:16:08;;;;;;;;;22.50;16.75;;;;;;;;5123226;27;62085;-73
2023/04/21 10:18:34;;;;;;;;;19.50;16.75;;;;;;;;5117064;27;62066;-73
2023/04/21 10:21:03;;;;;;;;;25.25;19.75;;;;;;;;5101168;27;61813;-73
2023/04/21 10:23:35;;;;;;;;;19.75;19.75;;;;;;;;5103471;27;61851;-73
2023/04/21 10:26:11;;;;;;;;;33.50;27.25;;;;;;;;5102200;27;61854;-73
2023/04/21 10:28:40;;;;;;;;;19.75;18.00;;;;;;;;5102032;27;61816;-73
2023/04/21 10:31:20;;;;;;;;;30.25;21.25;;;;;;;;5103218;27;61842;-73
2023/04/21 10:34:15;;;;;;;;;20.25;19.25;;;;;;;;5102961;27;62093;-73
2023/04/21 10:36:40;;;;;;;;;19.75;16.25;;;;;;;;5097195;27;61716;-73
2023/04/21 10:39:06;;;;;;;;;20.75;16.75;;;;;;;;5122167;27;61727;-73
2023/04/21 10:41:32;;;;;;;;;18.00;16.25;;;;;;;;5102481;27;62160;-74
2023/04/21 10:44:17;;;;;;;;;16.25;15.00;;;;;;;;5102323;27;62053;-73
2023/04/21 10:46:46;;;;;;;;;24.50;20.00;;;;;;;;5115051;27;62231;-72
2023/04/21 10:49:20;;;;;;;;;25.00;19.00;;;;;;;;5116897;27;64072;-73
2023/04/21 10:51:58;;;;;;;;;20.50;17.00;;;;;;;;5103759;27;61829;-77
2023/04/21 10:54:26;;;;;;;;;22.75;18.75;;;;;;;;5118505;27;61908;-77
2023/04/21 10:56:52;;;;;;;;;24.75;17.00;;;;;;;;5102648;27;61980;-78
2023/04/21 10:59:18;;;;;;;;;19.00;17.00;;;;;;;;5100324;27;64095;-78
2023/04/21 11:01:43;;;;;;;;;19.00;17.00;;;;;;;;5102725;27;62236;-77
2023/04/21 11:04:15;;;;;;;;;23.50;20.50;;;;;;;;5101975;27;61869;-79
2023/04/21 11:06:41;;;;;;;;;29.50;20.25;;;;;;;;5102566;27;62017;-79
2023/04/21 11:09:06;;;;;;;;;20.50;17.75;;;;;;;;5101943;27;61806;-78
2023/04/21 11:11:31;;;;;;;;;20.50;18.75;;;;;;;;5101400;27;61937;-79
2023/04/21 11:14:00;;;;;;;;;16.00;15.25;;;;;;;;5100923;27;62040;-78
2023/04/21 11:16:25;;;;;;;;;19.50;19.00;;;;;;;;5099986;27;61961;-77
2023/04/21 11:18:51;;;;;;;;;22.50;17.25;;;;;;;;5100665;27;62975;-76
2023/04/21 11:21:17;;;;;;;;;22.75;20.75;;;;;;;;5114226;27;61972;-79
2023/04/21 11:23:49;;;;;;;;;17.50;17.00;;;;;;;;5106076;27;61639;-72
2023/04/21 11:26:15;;;;;;;;;18.75;18.50;;;;;;;;5104933;27;61712;-73
2023/04/21 11:28:43;;;;;;;;;21.25;17.50;;;;;;;;5104301;27;62882;-73
2023/04/21 11:31:08;;;;;;;;;17.50;17.50;;;;;;;;5105030;27;62049;-73
2023/04/21 11:33:37;;;;;;;;;21.00;17.75;;;;;;;;5104426;27;61983;-72
2023/04/21 11:36:04;;;;;;;;;25.00;19.00;;;;;;;;5103518;27;62518;-72
2023/04/21 11:38:40;;;;;;;;;20.50;17.00;;;;;;;;5111019;27;63550;-72
2023/04/21 11:41:06;;;;;;;;;22.00;17.25;;;;;;;;5110505;27;61873;-77
2023/04/21 11:43:32;;;;;;;;;27.00;20.75;;;;;;;;5108334;27;61845;-78
2023/04/21 11:46:20;;;;;;;;;18.50;18.50;;;;;;;;5108528;27;62172;-77
2023/04/21 11:48:45;;;;;;;;;20.00;17.75;;;;;;;;5106638;27;63460;-78
2023/04/21 11:51:17;;;;;;;;;21.50;18.75;;;;;;;;5109020;27;61803;-77
2023/04/21 11:53:45;;;;;;;;;18.25;16.75;;;;;;;;5110253;27;61877;-78
2023/04/21 11:56:11;;;;;;;;;18.50;16.50;;;;;;;;5115088;27;62062;-77
2023/04/21 11:58:37;;;;;;;;;22.00;17.00;;;;;;;;5108655;27;62112;-77
2023/04/21 12:01:08;;;;;;;;;21.25;16.25;;;;;;;;5114707;27;62023;-77
2023/04/21 12:03:34;;;;;;;;;23.75;18.00;;;;;;;;5107599;27;62469;-77
2023/04/21 12:05:59;;;;;;;;;16.00;16.00;;;;;;;;5109076;27;62007;-77
2023/04/21 12:08:27;;;;;;;;;18.00;17.00;;;;;;;;5102161;27;62217;-78
2023/04/21 12:10:53;;;;;;;;;13.25;12.25;;;;;;;;5103294;27;62043;-78
2023/04/21 12:13:21;;;;;;;;;19.00;18.00;;;;;;;;5104833;27;61874;-78
2023/04/21 12:15:47;;;;;;;;;18.75;16.00;;;;;;;;5103085;27;61764;-78
2023/04/21 12:18:13;;;;;;;;;20.25;17.25;;;;;;;;5118710;27;62001;-78
2023/04/21 12:20:38;;;;;;;;;21.00;16.75;;;;;;;;5104939;27;61828;-78
2023/04/21 12:23:03;;;;;;;;;18.00;15.50;;;;;;;;5107219;27;61850;-78
2023/04/21 12:25:28;;;;;;;;;16.75;14.00;;;;;;;;5105281;27;61675;-79
2023/04/21 12:27:57;;;;;;;;;22.00;16.00;;;;;;;;5098411;27;63864;-79
2023/04/21 12:30:25;;;;;;;;;17.50;11.00;;;;;;;;5090518;27;62313;-78
2023/04/21 12:32:52;;;;;;;;;16.25;14.50;;;;;;;;5095485;27;62091;-79
2023/04/21 12:35:18;;;;;;;;;19.50;15.75;;;;;;;;5099813;27;62040;-78
2023/04/21 12:37:43;;;;;;;;;24.00;17.25;;;;;;;;5104028;27;62905;-79
2023/04/21 12:40:09;;;;;;;;;16.00;14.50;;;;;;;;5102035;27;62199;-78
2023/04/21 12:42:34;;;;;;;;;19.75;17.00;;;;;;;;5102644;27;62124;-78
2023/04/21 12:45:00;;;;;;;;;24.75;17.75;;;;;;;;5102487;27;61908;-78
2023/04/21 12:47:25;;;;;;;;;19.25;15.75;;;;;;;;5098540;27;64536;-78
2023/04/21 12:49:50;;;;;;;;;17.75;17.75;;;;;;;;5099250;27;62214;-78
2023/04/21 12:52:17;;;;;;;;;17.25;14.25;;;;;;;;5100380;27;62110;-78
2023/04/21 12:54:44;;;;;;;;;16.25;15.00;;;;;;;;5099884;27;62040;-78
2023/04/21 12:57:11;;;;;;;;;20.00;16.50;;;;;;;;5101306;27;62118;-78
2023/04/21 12:59:36;;;;;;;;;18.75;17.00;;;;;;;;5099731;27;62104;-78
2023/04/21 13:02:02;;;;;;;;;23.25;19.00;;;;;;;;5103240;27;61835;-78
2023/04/21 13:04:27;;;;;;;;;20.50;20.50;;;;;;;;5103353;27;62256;-78
2023/04/21 13:06:53;;;;;;;;;24.25;17.50;;;;;;;;5101412;27;62538;-78
2023/04/21 13:09:18;;;;;;;;;14.75;12.75;;;;;;;;5101786;27;61886;-78
2023/04/21 13:11:43;;;;;;;;;20.25;16.50;;;;;;;;5106781;27;61837;-78
2023/04/21 13:14:09;;;;;;;;;17.25;15.50;;;;;;;;5103516;27;61811;-78
2023/04/21 13:16:34;;;;;;;;;15.50;14.00;;;;;;;;5100772;27;61948;-78
2023/04/21 13:19:00;;;;;;;;;16.00;14.50;;;;;;;;5102127;27;62063;-79
2023/04/21 13:21:25;;;;;;;;;14.25;14.25;;;;;;;;5110839;27;62287;-78
2023/04/21 13:23:52;;;;;;;;;16.50;15.75;;;;;;;;5102613;27;62753;-79
2023/04/21 13:26:17;;;;;;;;;15.75;14.00;;;;;;;;5102458;27;61799;-79
2023/04/21 13:28:42;;;;;;;;;15.25;14.50;;;;;;;;5100700;27;61925;-78
2023/04/21 13:31:08;;;;;;;;;18.00;16.25;;;;;;;;5102243;27;61968;-78
2023/04/21 13:33:34;;;;;;;;;15.25;13.75;;;;;;;;5102668;27;61939;-76
2023/04/21 13:36:02;;;;;;;;;13.67;12.67;;;;;;;;5095843;27;61933;-76
2023/04/21 13:38:27;;;;;;;;;16.67;13.67;;;;;;;;5101229;27;61978;-77
2023/04/21 13:40:52;;;;;;;;;16.67;13.67;;;;;;;;5115413;27;61726;-77
2023/04/21 13:43:18;;;;;;;;;17.33;15.33;;;;;;;;5100817;27;61743;-77
2023/04/21 13:45:44;;;;;;;;;16.00;15.33;;;;;;;;5099737;27;62319;-77
2023/04/21 13:48:10;;;;;;;;;16.00;13.00;;;;;;;;5101029;27;61787;-76
2023/04/21 13:50:35;;;;;;;;;12.00;10.33;;;;;;;;5081217;27;61772;-77
2023/04/21 13:53:01;;;;;;;;;18.33;12.00;;;;;;;;5102970;27;61853;-76
2023/04/21 13:55:26;;;;;;;;;18.33;16.00;;;;;;;;5101869;27;62811;-76
2023/04/21 13:57:51;;;;;;;;;15.67;14.67;;;;;;;;5103669;27;61772;-76
2023/04/21 14:00:17;;;;;;;;;16.00;14.00;;;;;;;;5102147;27;61731;-76
2023/04/21 14:02:42;;;;;;;;;15.00;14.00;;;;;;;;5114842;27;61963;-76
2023/04/21 14:05:07;;;;;;;;;18.67;17.00;;;;;;;;5109712;27;63597;-76
2023/04/21 14:07:34;;;;;;;;;20.67;14.67;;;;;;;;5102777;27;61987;-75
2023/04/21 14:09:59;;;;;;;;;13.00;12.00;;;;;;;;5101309;27;61784;-76